sensor_id;sensor_type;location;lat;lon;timestamp;P1;durP1;ratioP1;P2;durP2;ratioP2
22713;SDS011;11524;50.846;4.326;2023-03-16T00:02:05;5.85;;;2.47;;
22713;SDS011;11524;50.846;4.326;2023-03-16T00:04:31;5.45;;;2.80;;
22713;SDS011;11524;50.846;4.326;2023-03-16T00:07:01;5.55;;;2.53;;
22713;SDS011;11524;50.846;4.326;2023-03-16T00:09:29;4.70;;;2.55;;
22713;SDS011;11524;50.846;4.326;2023-03-16T00:11:58;6.40;;;2.60;;
22713;SDS011;11524;50.846;4.326;2023-03-16T00:14:28;6.73;;;2.70;;
22713;SDS011;11524;50.846;4.326;2023-03-16T00:16:54;5.32;;;3.00;;
22713;SDS011;11524;50.846;4.326;2023-03-16T00:19:20;5.10;;;2.53;;
22713;SDS011;11524;50.846;4.326;2023-03-16T00:21:47;6.60;;;2.90;;
22713;SDS011;11524;50.846;4.326;2023-03-16T00:24:16;7.20;;;2.88;;
22713;SDS011;11524;50.846;4.326;2023-03-16T00:26:43;6.30;;;2.72;;
22713;SDS011;11524;50.846;4.326;2023-03-16T00:29:09;5.60;;;2.67;;
22713;SDS011;11524;50.846;4.326;2023-03-16T00:31:35;4.10;;;2.38;;
22713;SDS011;11524;50.846;4.326;2023-03-16T00:34:02;4.88;;;2.53;;
22713;SDS011;11524;50.846;4.326;2023-03-16T00:36:27;5.40;;;2.38;;
22713;SDS011;11524;50.846;4.326;2023-03-16T00:38:54;4.47;;;2.50;;
22713;SDS011;11524;50.846;4.326;2023-03-16T00:41:20;6.07;;;2.60;;
22713;SDS011;11524;50.846;4.326;2023-03-16T00:43:46;4.70;;;2.75;;
22713;SDS011;11524;50.846;4.326;2023-03-16T00:46:16;4.38;;;2.30;;
22713;SDS011;11524;50.846;4.326;2023-03-16T00:48:43;4.85;;;2.33;;
22713;SDS011;11524;50.846;4.326;2023-03-16T00:51:12;4.47;;;2.10;;
22713;SDS011;11524;50.846;4.326;2023-03-16T00:53:41;5.65;;;2.45;;
22713;SDS011;11524;50.846;4.326;2023-03-16T00:56:08;5.18;;;2.40;;
22713;SDS011;11524;50.846;4.326;2023-03-16T00:58:35;4.30;;;2.35;;
22713;SDS011;11524;50.846;4.326;2023-03-16T01:01:03;4.22;;;2.22;;
22713;SDS011;11524;50.846;4.326;2023-03-16T01:03:30;4.53;;;2.45;;
22713;SDS011;11524;50.846;4.326;2023-03-16T01:05:56;4.10;;;2.40;;
22713;SDS011;11524;50.846;4.326;2023-03-16T01:08:24;4.75;;;2.05;;
22713;SDS011;11524;50.846;4.326;2023-03-16T01:10:51;3.38;;;2.08;;
22713;SDS011;11524;50.846;4.326;2023-03-16T01:13:18;3.80;;;2.30;;
22713;SDS011;11524;50.846;4.326;2023-03-16T01:15:44;3.22;;;2.00;;
22713;SDS011;11524;50.846;4.326;2023-03-16T01:18:10;4.13;;;2.40;;
22713;SDS011;11524;50.846;4.326;2023-03-16T01:20:38;3.35;;;1.95;;
22713;SDS011;11524;50.846;4.326;2023-03-16T01:23:04;4.38;;;2.10;;
22713;SDS011;11524;50.846;4.326;2023-03-16T01:25:30;3.40;;;2.00;;
22713;SDS011;11524;50.846;4.326;2023-03-16T01:27:56;3.80;;;2.00;;
22713;SDS011;11524;50.846;4.326;2023-03-16T01:30:22;4.40;;;2.20;;
22713;SDS011;11524;50.846;4.326;2023-03-16T01:32:48;4.57;;;2.15;;
22713;SDS011;11524;50.846;4.326;2023-03-16T01:35:13;3.78;;;2.08;;
22713;SDS011;11524;50.846;4.326;2023-03-16T01:37:39;3.85;;;2.13;;
22713;SDS011;11524;50.846;4.326;2023-03-16T01:40:05;3.53;;;1.70;;
22713;SDS011;11524;50.846;4.326;2023-03-16T01:42:40;2.92;;;1.92;;
22713;SDS011;11524;50.846;4.326;2023-03-16T01:48:12;4.80;;;2.05;;
22713;SDS011;11524;50.846;4.326;2023-03-16T01:50:39;3.17;;;2.13;;
22713;SDS011;11524;50.846;4.326;2023-03-16T01:53:06;3.55;;;2.00;;
22713;SDS011;11524;50.846;4.326;2023-03-16T01:55:33;2.55;;;1.63;;
22713;SDS011;11524;50.846;4.326;2023-03-16T01:57:59;4.00;;;2.03;;
22713;SDS011;11524;50.846;4.326;2023-03-16T02:00:25;5.07;;;2.03;;
22713;SDS011;11524;50.846;4.326;2023-03-16T02:02:59;4.75;;;2.08;;
22713;SDS011;11524;50.846;4.326;2023-03-16T02:05:40;3.00;;;1.80;;
22713;SDS011;11524;50.846;4.326;2023-03-16T02:08:11;3.67;;;1.98;;
22713;SDS011;11524;50.846;4.326;2023-03-16T02:10:38;3.85;;;1.60;;
22713;SDS011;11524;50.846;4.326;2023-03-16T02:13:05;3.70;;;2.00;;
22713;SDS011;11524;50.846;4.326;2023-03-16T02:15:31;4.15;;;2.10;;
22713;SDS011;11524;50.846;4.326;2023-03-16T02:17:56;3.00;;;1.67;;
22713;SDS011;11524;50.846;4.326;2023-03-16T02:23:14;3.38;;;1.52;;
22713;SDS011;11524;50.846;4.326;2023-03-16T02:25:55;3.85;;;1.90;;
22713;SDS011;11524;50.846;4.326;2023-03-16T02:31:15;3.40;;;2.00;;
22713;SDS011;11524;50.846;4.326;2023-03-16T02:33:41;3.88;;;1.80;;
22713;SDS011;11524;50.846;4.326;2023-03-16T02:36:08;4.32;;;1.70;;
22713;SDS011;11524;50.846;4.326;2023-03-16T02:38:34;2.58;;;1.58;;
22713;SDS011;11524;50.846;4.326;2023-03-16T02:41:16;3.78;;;1.98;;
22713;SDS011;11524;50.846;4.326;2023-03-16T02:43:50;3.78;;;1.60;;
22713;SDS011;11524;50.846;4.326;2023-03-16T02:46:20;2.95;;;1.48;;
22713;SDS011;11524;50.846;4.326;2023-03-16T02:48:58;3.42;;;1.42;;
22713;SDS011;11524;50.846;4.326;2023-03-16T02:51:30;2.03;;;1.45;;
22713;SDS011;11524;50.846;4.326;2023-03-16T02:53:56;3.10;;;1.55;;
22713;SDS011;11524;50.846;4.326;2023-03-16T02:56:22;2.95;;;1.60;;
22713;SDS011;11524;50.846;4.326;2023-03-16T02:58:48;2.97;;;1.40;;
22713;SDS011;11524;50.846;4.326;2023-03-16T03:01:13;3.33;;;1.40;;
22713;SDS011;11524;50.846;4.326;2023-03-16T03:03:39;2.55;;;1.55;;
22713;SDS011;11524;50.846;4.326;2023-03-16T03:06:04;3.10;;;1.55;;
22713;SDS011;11524;50.846;4.326;2023-03-16T03:08:30;2.83;;;1.55;;
22713;SDS011;11524;50.846;4.326;2023-03-16T03:10:57;3.03;;;1.50;;
22713;SDS011;11524;50.846;4.326;2023-03-16T03:13:23;3.03;;;1.40;;
22713;SDS011;11524;50.846;4.326;2023-03-16T03:15:48;2.83;;;1.20;;
22713;SDS011;11524;50.846;4.326;2023-03-16T03:18:14;2.60;;;1.27;;
22713;SDS011;11524;50.846;4.326;2023-03-16T03:20:40;2.67;;;1.45;;
22713;SDS011;11524;50.846;4.326;2023-03-16T03:23:05;2.92;;;1.42;;
22713;SDS011;11524;50.846;4.326;2023-03-16T03:25:31;4.25;;;1.50;;
22713;SDS011;11524;50.846;4.326;2023-03-16T03:28:00;3.42;;;1.40;;
22713;SDS011;11524;50.846;4.326;2023-03-16T03:30:28;2.65;;;1.20;;
22713;SDS011;11524;50.846;4.326;2023-03-16T03:32:54;2.55;;;1.58;;
22713;SDS011;11524;50.846;4.326;2023-03-16T03:35:20;3.15;;;1.80;;
22713;SDS011;11524;50.846;4.326;2023-03-16T03:37:46;5.85;;;1.40;;
22713;SDS011;11524;50.846;4.326;2023-03-16T03:40:13;4.80;;;1.70;;
22713;SDS011;11524;50.846;4.326;2023-03-16T03:42:40;3.90;;;1.63;;
22713;SDS011;11524;50.846;4.326;2023-03-16T03:45:06;2.63;;;1.38;;
22713;SDS011;11524;50.846;4.326;2023-03-16T03:47:33;2.33;;;1.48;;
22713;SDS011;11524;50.846;4.326;2023-03-16T03:49:58;2.95;;;1.30;;
22713;SDS011;11524;50.846;4.326;2023-03-16T03:52:24;3.08;;;1.50;;
22713;SDS011;11524;50.846;4.326;2023-03-16T03:54:51;2.92;;;1.30;;
22713;SDS011;11524;50.846;4.326;2023-03-16T03:57:17;2.83;;;1.50;;
22713;SDS011;11524;50.846;4.326;2023-03-16T03:59:42;3.08;;;1.25;;
22713;SDS011;11524;50.846;4.326;2023-03-16T04:02:08;2.28;;;1.17;;
22713;SDS011;11524;50.846;4.326;2023-03-16T04:04:35;2.30;;;1.00;;
22713;SDS011;11524;50.846;4.326;2023-03-16T04:07:01;3.65;;;1.25;;
22713;SDS011;11524;50.846;4.326;2023-03-16T04:09:27;3.13;;;1.33;;
22713;SDS011;11524;50.846;4.326;2023-03-16T04:11:53;2.90;;;1.10;;
22713;SDS011;11524;50.846;4.326;2023-03-16T04:14:21;2.33;;;1.40;;
22713;SDS011;11524;50.846;4.326;2023-03-16T04:16:47;2.97;;;1.20;;
22713;SDS011;11524;50.846;4.326;2023-03-16T04:19:12;4.93;;;1.60;;
22713;SDS011;11524;50.846;4.326;2023-03-16T04:21:38;2.88;;;1.35;;
22713;SDS011;11524;50.846;4.326;2023-03-16T04:24:04;2.00;;;0.98;;
22713;SDS011;11524;50.846;4.326;2023-03-16T04:26:30;1.77;;;1.40;;
22713;SDS011;11524;50.846;4.326;2023-03-16T04:28:56;1.40;;;1.17;;
22713;SDS011;11524;50.846;4.326;2023-03-16T04:31:23;3.42;;;1.23;;
22713;SDS011;11524;50.846;4.326;2023-03-16T04:33:48;2.45;;;1.30;;
22713;SDS011;11524;50.846;4.326;2023-03-16T04:36:14;2.17;;;1.02;;
22713;SDS011;11524;50.846;4.326;2023-03-16T04:38:40;2.38;;;1.10;;
22713;SDS011;11524;50.846;4.326;2023-03-16T04:41:06;3.50;;;1.33;;
22713;SDS011;11524;50.846;4.326;2023-03-16T04:43:31;1.75;;;1.10;;
22713;SDS011;11524;50.846;4.326;2023-03-16T04:45:59;1.75;;;1.05;;
22713;SDS011;11524;50.846;4.326;2023-03-16T04:48:29;3.25;;;1.25;;
22713;SDS011;11524;50.846;4.326;2023-03-16T04:50:56;2.13;;;1.00;;
22713;SDS011;11524;50.846;4.326;2023-03-16T04:53:22;3.15;;;1.10;;
22713;SDS011;11524;50.846;4.326;2023-03-16T04:55:47;1.75;;;1.10;;
22713;SDS011;11524;50.846;4.326;2023-03-16T04:58:13;1.65;;;1.00;;
22713;SDS011;11524;50.846;4.326;2023-03-16T05:00:39;2.13;;;1.05;;
22713;SDS011;11524;50.846;4.326;2023-03-16T05:03:05;1.65;;;1.10;;
22713;SDS011;11524;50.846;4.326;2023-03-16T05:05:33;2.38;;;0.82;;
22713;SDS011;11524;50.846;4.326;2023-03-16T05:07:59;2.78;;;1.10;;
22713;SDS011;11524;50.846;4.326;2023-03-16T05:10:25;1.88;;;1.02;;
22713;SDS011;11524;50.846;4.326;2023-03-16T05:12:51;2.80;;;1.05;;
22713;SDS011;11524;50.846;4.326;2023-03-16T05:15:17;2.67;;;0.80;;
22713;SDS011;11524;50.846;4.326;2023-03-16T05:17:43;1.77;;;1.00;;
22713;SDS011;11524;50.846;4.326;2023-03-16T05:20:09;2.00;;;1.00;;
22713;SDS011;11524;50.846;4.326;2023-03-16T05:22:40;2.05;;;0.90;;
22713;SDS011;11524;50.846;4.326;2023-03-16T05:25:07;2.83;;;0.90;;
22713;SDS011;11524;50.846;4.326;2023-03-16T05:27:37;1.95;;;0.90;;
22713;SDS011;11524;50.846;4.326;2023-03-16T05:30:05;1.83;;;0.90;;
22713;SDS011;11524;50.846;4.326;2023-03-16T05:32:33;2.33;;;1.00;;
22713;SDS011;11524;50.846;4.326;2023-03-16T05:34:58;1.80;;;0.90;;
22713;SDS011;11524;50.846;4.326;2023-03-16T05:37:24;2.80;;;1.00;;
22713;SDS011;11524;50.846;4.326;2023-03-16T05:39:49;1.85;;;0.93;;
22713;SDS011;11524;50.846;4.326;2023-03-16T05:42:15;1.65;;;0.90;;
22713;SDS011;11524;50.846;4.326;2023-03-16T05:44:40;1.70;;;0.90;;
22713;SDS011;11524;50.846;4.326;2023-03-16T05:47:06;2.28;;;1.10;;
22713;SDS011;11524;50.846;4.326;2023-03-16T05:49:31;1.80;;;1.00;;
22713;SDS011;11524;50.846;4.326;2023-03-16T05:51:57;3.60;;;1.00;;
22713;SDS011;11524;50.846;4.326;2023-03-16T05:54:23;4.35;;;1.00;;
22713;SDS011;11524;50.846;4.326;2023-03-16T05:56:48;1.77;;;0.93;;
22713;SDS011;11524;50.846;4.326;2023-03-16T05:59:14;1.20;;;0.80;;
22713;SDS011;11524;50.846;4.326;2023-03-16T06:01:41;3.83;;;1.05;;
22713;SDS011;11524;50.846;4.326;2023-03-16T06:04:07;2.65;;;0.80;;
22713;SDS011;11524;50.846;4.326;2023-03-16T06:06:33;1.27;;;1.00;;
22713;SDS011;11524;50.846;4.326;2023-03-16T06:08:58;3.40;;;1.30;;
22713;SDS011;11524;50.846;4.326;2023-03-16T06:11:25;2.60;;;0.90;;
22713;SDS011;11524;50.846;4.326;2023-03-16T06:13:50;5.03;;;1.02;;
22713;SDS011;11524;50.846;4.326;2023-03-16T06:16:16;3.42;;;1.17;;
22713;SDS011;11524;50.846;4.326;2023-03-16T06:18:42;3.50;;;0.93;;
22713;SDS011;11524;50.846;4.326;2023-03-16T06:21:07;1.88;;;0.80;;
22713;SDS011;11524;50.846;4.326;2023-03-16T06:23:33;4.60;;;1.15;;
22713;SDS011;11524;50.846;4.326;2023-03-16T06:25:59;3.15;;;0.93;;
22713;SDS011;11524;50.846;4.326;2023-03-16T06:28:25;2.15;;;1.00;;
22713;SDS011;11524;50.846;4.326;2023-03-16T06:30:54;1.83;;;1.10;;
22713;SDS011;11524;50.846;4.326;2023-03-16T06:33:21;3.78;;;1.10;;
22713;SDS011;11524;50.846;4.326;2023-03-16T06:35:47;3.15;;;1.08;;
22713;SDS011;11524;50.846;4.326;2023-03-16T06:38:13;2.78;;;0.90;;
22713;SDS011;11524;50.846;4.326;2023-03-16T06:40:39;2.30;;;0.80;;
22713;SDS011;11524;50.846;4.326;2023-03-16T06:43:05;1.13;;;0.80;;
22713;SDS011;11524;50.846;4.326;2023-03-16T06:45:31;1.85;;;0.85;;
22713;SDS011;11524;50.846;4.326;2023-03-16T06:47:57;4.82;;;1.20;;
22713;SDS011;11524;50.846;4.326;2023-03-16T06:50:23;4.35;;;1.20;;
22713;SDS011;11524;50.846;4.326;2023-03-16T06:52:48;4.10;;;1.20;;
22713;SDS011;11524;50.846;4.326;2023-03-16T06:55:14;5.03;;;1.23;;
22713;SDS011;11524;50.846;4.326;2023-03-16T06:57:40;0.95;;;0.85;;
22713;SDS011;11524;50.846;4.326;2023-03-16T07:00:08;4.13;;;1.23;;
22713;SDS011;11524;50.846;4.326;2023-03-16T07:02:35;3.67;;;1.30;;
22713;SDS011;11524;50.846;4.326;2023-03-16T07:05:03;1.70;;;1.10;;
22713;SDS011;11524;50.846;4.326;2023-03-16T07:07:30;3.30;;;1.33;;
22713;SDS011;11524;50.846;4.326;2023-03-16T07:09:56;6.57;;;1.40;;
22713;SDS011;11524;50.846;4.326;2023-03-16T07:12:21;3.45;;;1.42;;
22713;SDS011;11524;50.846;4.326;2023-03-16T07:14:47;2.03;;;1.05;;
22713;SDS011;11524;50.846;4.326;2023-03-16T07:17:13;4.65;;;1.15;;
22713;SDS011;11524;50.846;4.326;2023-03-16T07:19:38;2.47;;;1.15;;
22713;SDS011;11524;50.846;4.326;2023-03-16T07:22:04;5.25;;;1.17;;
22713;SDS011;11524;50.846;4.326;2023-03-16T07:24:29;5.25;;;1.30;;
22713;SDS011;11524;50.846;4.326;2023-03-16T07:26:56;3.88;;;1.30;;
22713;SDS011;11524;50.846;4.326;2023-03-16T07:29:22;5.22;;;1.60;;
22713;SDS011;11524;50.846;4.326;2023-03-16T07:31:50;5.70;;;1.20;;
22713;SDS011;11524;50.846;4.326;2023-03-16T07:34:17;8.45;;;1.60;;
22713;SDS011;11524;50.846;4.326;2023-03-16T07:36:43;5.15;;;1.35;;
22713;SDS011;11524;50.846;4.326;2023-03-16T07:39:08;5.53;;;1.40;;
22713;SDS011;11524;50.846;4.326;2023-03-16T07:41:37;7.88;;;1.20;;
22713;SDS011;11524;50.846;4.326;2023-03-16T07:44:03;3.78;;;1.30;;
22713;SDS011;11524;50.846;4.326;2023-03-16T07:46:29;6.30;;;1.30;;
22713;SDS011;11524;50.846;4.326;2023-03-16T07:48:56;3.15;;;1.08;;
22713;SDS011;11524;50.846;4.326;2023-03-16T07:51:22;5.38;;;1.58;;
22713;SDS011;11524;50.846;4.326;2023-03-16T07:53:49;4.78;;;1.35;;
22713;SDS011;11524;50.846;4.326;2023-03-16T07:56:15;2.92;;;1.40;;
22713;SDS011;11524;50.846;4.326;2023-03-16T07:58:40;4.43;;;1.10;;
22713;SDS011;11524;50.846;4.326;2023-03-16T08:01:06;5.32;;;1.40;;
22713;SDS011;11524;50.846;4.326;2023-03-16T08:03:34;3.42;;;1.30;;
22713;SDS011;11524;50.846;4.326;2023-03-16T08:06:00;3.00;;;1.10;;
22713;SDS011;11524;50.846;4.326;2023-03-16T08:08:25;3.58;;;1.33;;
22713;SDS011;11524;50.846;4.326;2023-03-16T08:10:51;3.92;;;1.20;;
22713;SDS011;11524;50.846;4.326;2023-03-16T08:13:17;5.18;;;1.48;;
22713;SDS011;11524;50.846;4.326;2023-03-16T08:15:47;2.53;;;1.27;;
22713;SDS011;11524;50.846;4.326;2023-03-16T08:18:14;2.53;;;1.15;;
22713;SDS011;11524;50.846;4.326;2023-03-16T08:20:39;2.33;;;1.30;;
22713;SDS011;11524;50.846;4.326;2023-03-16T08:23:05;2.65;;;1.25;;
22713;SDS011;11524;50.846;4.326;2023-03-16T08:25:31;3.33;;;1.30;;
22713;SDS011;11524;50.846;4.326;2023-03-16T08:27:57;1.98;;;0.90;;
22713;SDS011;11524;50.846;4.326;2023-03-16T08:30:22;1.42;;;1.10;;
22713;SDS011;11524;50.846;4.326;2023-03-16T08:32:49;3.45;;;1.00;;
22713;SDS011;11524;50.846;4.326;2023-03-16T08:35:15;4.22;;;1.00;;
22713;SDS011;11524;50.846;4.326;2023-03-16T08:37:41;2.08;;;1.08;;
22713;SDS011;11524;50.846;4.326;2023-03-16T08:40:07;2.15;;;0.90;;
22713;SDS011;11524;50.846;4.326;2023-03-16T08:42:35;1.48;;;1.00;;
22713;SDS011;11524;50.846;4.326;2023-03-16T08:45:03;2.22;;;1.10;;
22713;SDS011;11524;50.846;4.326;2023-03-16T08:47:34;2.92;;;1.10;;
22713;SDS011;11524;50.846;4.326;2023-03-16T08:50:00;3.00;;;1.05;;
22713;SDS011;11524;50.846;4.326;2023-03-16T08:52:26;3.03;;;1.15;;
22713;SDS011;11524;50.846;4.326;2023-03-16T08:54:52;3.00;;;1.17;;
22713;SDS011;11524;50.846;4.326;2023-03-16T08:57:17;2.65;;;1.23;;
22713;SDS011;11524;50.846;4.326;2023-03-16T08:59:43;2.90;;;1.00;;
22713;SDS011;11524;50.846;4.326;2023-03-16T09:02:12;1.55;;;0.88;;
22713;SDS011;11524;50.846;4.326;2023-03-16T09:04:38;1.65;;;0.95;;
22713;SDS011;11524;50.846;4.326;2023-03-16T09:07:05;2.47;;;1.10;;
22713;SDS011;11524;50.846;4.326;2023-03-16T09:09:30;1.95;;;1.17;;
22713;SDS011;11524;50.846;4.326;2023-03-16T09:11:56;2.47;;;1.00;;
22713;SDS011;11524;50.846;4.326;2023-03-16T09:14:23;1.35;;;0.90;;
22713;SDS011;11524;50.846;4.326;2023-03-16T09:16:49;3.78;;;1.17;;
22713;SDS011;11524;50.846;4.326;2023-03-16T09:19:16;3.10;;;1.10;;
22713;SDS011;11524;50.846;4.326;2023-03-16T09:21:42;3.50;;;1.10;;
22713;SDS011;11524;50.846;4.326;2023-03-16T09:24:08;1.42;;;0.85;;
22713;SDS011;11524;50.846;4.326;2023-03-16T09:26:37;2.13;;;0.98;;
22713;SDS011;11524;50.846;4.326;2023-03-16T09:29:03;1.45;;;0.85;;
22713;SDS011;11524;50.846;4.326;2023-03-16T09:31:31;1.73;;;0.90;;
22713;SDS011;11524;50.846;4.326;2023-03-16T09:33:57;2.42;;;0.88;;
22713;SDS011;11524;50.846;4.326;2023-03-16T09:36:23;2.80;;;1.10;;
22713;SDS011;11524;50.846;4.326;2023-03-16T09:38:49;2.47;;;1.00;;
22713;SDS011;11524;50.846;4.326;2023-03-16T09:41:25;2.83;;;0.80;;
22713;SDS011;11524;50.846;4.326;2023-03-16T09:44:22;2.80;;;0.80;;
22713;SDS011;11524;50.846;4.326;2023-03-16T09:47:13;2.47;;;1.20;;
22713;SDS011;11524;50.846;4.326;2023-03-16T09:49:45;2.90;;;0.70;;
22713;SDS011;11524;50.846;4.326;2023-03-16T09:57:52;4.25;;;1.10;;
22713;SDS011;11524;50.846;4.326;2023-03-16T10:00:40;1.75;;;0.77;;
22713;SDS011;11524;50.846;4.326;2023-03-16T10:03:14;1.70;;;1.00;;
22713;SDS011;11524;50.846;4.326;2023-03-16T10:06:10;2.15;;;0.85;;
22713;SDS011;11524;50.846;4.326;2023-03-16T10:22:26;1.35;;;0.90;;
22713;SDS011;11524;50.846;4.326;2023-03-16T10:25:01;2.10;;;0.63;;
22713;SDS011;11524;50.846;4.326;2023-03-16T10:27:33;1.60;;;1.00;;
22713;SDS011;11524;50.846;4.326;2023-03-16T10:30:02;2.28;;;0.90;;
22713;SDS011;11524;50.846;4.326;2023-03-16T10:32:48;2.05;;;0.98;;
22713;SDS011;11524;50.846;4.326;2023-03-16T10:41:27;1.30;;;0.90;;
22713;SDS011;11524;50.846;4.326;2023-03-16T10:47:03;2.00;;;0.98;;
22713;SDS011;11524;50.846;4.326;2023-03-16T10:49:42;2.00;;;0.70;;
22713;SDS011;11524;50.846;4.326;2023-03-16T10:54:49;4.60;;;1.00;;
22713;SDS011;11524;50.846;4.326;2023-03-16T10:57:32;2.05;;;0.85;;
22713;SDS011;11524;50.846;4.326;2023-03-16T11:00:04;2.70;;;0.93;;
22713;SDS011;11524;50.846;4.326;2023-03-16T11:02:39;4.10;;;0.90;;
22713;SDS011;11524;50.846;4.326;2023-03-16T11:05:11;1.25;;;0.85;;
22713;SDS011;11524;50.846;4.326;2023-03-16T11:07:37;1.95;;;0.80;;
22713;SDS011;11524;50.846;4.326;2023-03-16T11:10:11;2.67;;;0.98;;
22713;SDS011;11524;50.846;4.326;2023-03-16T11:12:49;2.75;;;0.88;;
22713;SDS011;11524;50.846;4.326;2023-03-16T11:15:16;1.20;;;0.55;;
22713;SDS011;11524;50.846;4.326;2023-03-16T11:17:43;1.38;;;0.90;;
22713;SDS011;11524;50.846;4.326;2023-03-16T11:20:24;2.45;;;0.82;;
22713;SDS011;11524;50.846;4.326;2023-03-16T11:22:52;2.72;;;0.73;;
22713;SDS011;11524;50.846;4.326;2023-03-16T11:25:36;2.30;;;0.77;;
22713;SDS011;11524;50.846;4.326;2023-03-16T11:28:14;1.45;;;0.75;;
22713;SDS011;11524;50.846;4.326;2023-03-16T11:33:45;1.13;;;0.68;;
22713;SDS011;11524;50.846;4.326;2023-03-16T11:39:02;3.08;;;0.90;;
22713;SDS011;11524;50.846;4.326;2023-03-16T11:52:11;0.98;;;0.70;;
22713;SDS011;11524;50.846;4.326;2023-03-16T11:57:26;1.23;;;0.73;;
22713;SDS011;11524;50.846;4.326;2023-03-16T12:05:56;1.83;;;0.90;;
22713;SDS011;11524;50.846;4.326;2023-03-16T12:11:29;1.60;;;0.70;;
22713;SDS011;11524;50.846;4.326;2023-03-16T12:14:15;0.60;;;0.55;;
22713;SDS011;11524;50.846;4.326;2023-03-16T12:24:52;1.60;;;0.63;;
22713;SDS011;11524;50.846;4.326;2023-03-16T12:27:22;2.45;;;0.75;;
22713;SDS011;11524;50.846;4.326;2023-03-16T12:33:00;1.13;;;0.70;;
22713;SDS011;11524;50.846;4.326;2023-03-16T12:43:40;1.20;;;0.73;;
22713;SDS011;11524;50.846;4.326;2023-03-16T12:48:57;1.70;;;0.82;;
22713;SDS011;11524;50.846;4.326;2023-03-16T12:51:32;1.88;;;0.80;;
22713;SDS011;11524;50.846;4.326;2023-03-16T12:53:59;0.90;;;0.65;;
22713;SDS011;11524;50.846;4.326;2023-03-16T12:56:30;1.25;;;0.70;;
22713;SDS011;11524;50.846;4.326;2023-03-16T12:58:59;1.60;;;0.73;;
22713;SDS011;11524;50.846;4.326;2023-03-16T13:01:28;2.20;;;1.10;;
22713;SDS011;11524;50.846;4.326;2023-03-16T13:04:17;2.13;;;0.90;;
22713;SDS011;11524;50.846;4.326;2023-03-16T13:07:04;3.45;;;0.80;;
22713;SDS011;11524;50.846;4.326;2023-03-16T13:09:39;1.67;;;0.93;;
22713;SDS011;11524;50.846;4.326;2023-03-16T13:12:08;1.30;;;0.55;;
22713;SDS011;11524;50.846;4.326;2023-03-16T13:14:45;2.13;;;0.75;;
22713;SDS011;11524;50.846;4.326;2023-03-16T13:19:39;1.40;;;0.70;;
22713;SDS011;11524;50.846;4.326;2023-03-16T13:24:54;1.38;;;0.80;;
22713;SDS011;11524;50.846;4.326;2023-03-16T13:27:41;1.20;;;0.80;;
22713;SDS011;11524;50.846;4.326;2023-03-16T13:30:19;1.10;;;0.80;;
22713;SDS011;11524;50.846;4.326;2023-03-16T13:32:53;1.38;;;0.70;;
22713;SDS011;11524;50.846;4.326;2023-03-16T13:35:23;2.25;;;0.63;;
22713;SDS011;11524;50.846;4.326;2023-03-16T13:37:52;1.40;;;0.70;;
22713;SDS011;11524;50.846;4.326;2023-03-16T13:40:23;1.25;;;0.60;;
22713;SDS011;11524;50.846;4.326;2023-03-16T13:42:51;1.45;;;0.80;;
22713;SDS011;11524;50.846;4.326;2023-03-16T13:45:22;1.25;;;0.73;;
22713;SDS011;11524;50.846;4.326;2023-03-16T13:48:01;1.77;;;0.80;;
22713;SDS011;11524;50.846;4.326;2023-03-16T13:50:30;1.30;;;0.75;;
22713;SDS011;11524;50.846;4.326;2023-03-16T13:52:58;1.55;;;0.77;;
22713;SDS011;11524;50.846;4.326;2023-03-16T13:55:35;1.55;;;0.75;;
22713;SDS011;11524;50.846;4.326;2023-03-16T13:58:02;1.50;;;0.70;;
22713;SDS011;11524;50.846;4.326;2023-03-16T14:00:33;2.67;;;0.75;;
22713;SDS011;11524;50.846;4.326;2023-03-16T14:03:07;2.60;;;0.65;;
22713;SDS011;11524;50.846;4.326;2023-03-16T14:05:38;1.45;;;0.77;;
22713;SDS011;11524;50.846;4.326;2023-03-16T14:08:11;2.38;;;0.73;;
22713;SDS011;11524;50.846;4.326;2023-03-16T14:13:22;1.58;;;0.60;;
22713;SDS011;11524;50.846;4.326;2023-03-16T14:16:00;1.35;;;0.60;;
22713;SDS011;11524;50.846;4.326;2023-03-16T14:18:34;2.80;;;0.70;;
22713;SDS011;11524;50.846;4.326;2023-03-16T14:21:12;1.52;;;0.70;;
22713;SDS011;11524;50.846;4.326;2023-03-16T14:23:45;2.13;;;1.00;;
22713;SDS011;11524;50.846;4.326;2023-03-16T14:26:15;1.52;;;0.70;;
22713;SDS011;11524;50.846;4.326;2023-03-16T14:29:04;1.35;;;0.70;;
22713;SDS011;11524;50.846;4.326;2023-03-16T14:31:38;1.20;;;0.60;;
22713;SDS011;11524;50.846;4.326;2023-03-16T14:34:47;2.40;;;0.85;;
22713;SDS011;11524;50.846;4.326;2023-03-16T14:37:07;1.30;;;0.80;;
22713;SDS011;11524;50.846;4.326;2023-03-16T14:39:37;2.13;;;0.80;;
22713;SDS011;11524;50.846;4.326;2023-03-16T14:42:04;1.98;;;0.85;;
22713;SDS011;11524;50.846;4.326;2023-03-16T14:44:39;1.80;;;0.80;;
22713;SDS011;11524;50.846;4.326;2023-03-16T14:47:05;2.42;;;0.80;;
22713;SDS011;11524;50.846;4.326;2023-03-16T14:52:44;1.55;;;0.90;;
22713;SDS011;11524;50.846;4.326;2023-03-16T14:54:51;1.08;;;0.75;;
22713;SDS011;11524;50.846;4.326;2023-03-16T14:57:19;2.75;;;0.95;;
22713;SDS011;11524;50.846;4.326;2023-03-16T14:59:45;3.05;;;0.80;;
22713;SDS011;11524;50.846;4.326;2023-03-16T15:02:22;1.83;;;0.70;;
22713;SDS011;11524;50.846;4.326;2023-03-16T15:04:51;1.15;;;0.63;;
22713;SDS011;11524;50.846;4.326;2023-03-16T15:07:25;1.10;;;0.80;;
22713;SDS011;11524;50.846;4.326;2023-03-16T15:09:52;1.40;;;0.70;;
22713;SDS011;11524;50.846;4.326;2023-03-16T15:12:20;2.08;;;0.80;;
22713;SDS011;11524;50.846;4.326;2023-03-16T15:14:48;0.85;;;0.50;;
22713;SDS011;11524;50.846;4.326;2023-03-16T15:17:33;0.80;;;0.70;;
22713;SDS011;11524;50.846;4.326;2023-03-16T15:19:58;3.08;;;0.70;;
22713;SDS011;11524;50.846;4.326;2023-03-16T15:22:28;1.40;;;0.65;;
22713;SDS011;11524;50.846;4.326;2023-03-16T15:24:56;1.80;;;0.70;;
22713;SDS011;11524;50.846;4.326;2023-03-16T15:27:24;0.98;;;0.50;;
22713;SDS011;11524;50.846;4.326;2023-03-16T15:29:58;1.83;;;0.80;;
22713;SDS011;11524;50.846;4.326;2023-03-16T15:32:24;2.15;;;0.60;;
22713;SDS011;11524;50.846;4.326;2023-03-16T15:34:49;1.38;;;0.70;;
22713;SDS011;11524;50.846;4.326;2023-03-16T15:37:15;0.80;;;0.60;;
22713;SDS011;11524;50.846;4.326;2023-03-16T15:39:43;0.93;;;0.60;;
22713;SDS011;11524;50.846;4.326;2023-03-16T15:42:11;1.48;;;0.75;;
22713;SDS011;11524;50.846;4.326;2023-03-16T15:44:42;1.02;;;0.52;;
22713;SDS011;11524;50.846;4.326;2023-03-16T15:47:08;1.42;;;0.75;;
22713;SDS011;11524;50.846;4.326;2023-03-16T15:49:34;0.73;;;0.52;;
22713;SDS011;11524;50.846;4.326;2023-03-16T15:52:01;1.35;;;0.60;;
22713;SDS011;11524;50.846;4.326;2023-03-16T15:54:27;1.77;;;0.68;;
22713;SDS011;11524;50.846;4.326;2023-03-16T15:56:53;2.72;;;0.70;;
22713;SDS011;11524;50.846;4.326;2023-03-16T15:59:20;1.67;;;0.77;;
22713;SDS011;11524;50.846;4.326;2023-03-16T16:01:47;1.65;;;0.60;;
22713;SDS011;11524;50.846;4.326;2023-03-16T16:04:17;1.98;;;0.77;;
22713;SDS011;11524;50.846;4.326;2023-03-16T16:06:45;0.98;;;0.80;;
22713;SDS011;11524;50.846;4.326;2023-03-16T16:09:11;1.23;;;0.80;;
22713;SDS011;11524;50.846;4.326;2023-03-16T16:11:37;1.38;;;0.77;;
22713;SDS011;11524;50.846;4.326;2023-03-16T16:14:05;1.92;;;0.85;;
22713;SDS011;11524;50.846;4.326;2023-03-16T16:16:35;1.55;;;0.80;;
22713;SDS011;11524;50.846;4.326;2023-03-16T16:19:03;1.85;;;0.95;;
22713;SDS011;11524;50.846;4.326;2023-03-16T16:21:28;1.27;;;0.70;;
22713;SDS011;11524;50.846;4.326;2023-03-16T16:23:55;1.42;;;0.70;;
22713;SDS011;11524;50.846;4.326;2023-03-16T16:28:52;2.85;;;1.02;;
22713;SDS011;11524;50.846;4.326;2023-03-16T16:31:19;1.40;;;0.88;;
22713;SDS011;11524;50.846;4.326;2023-03-16T16:33:46;1.42;;;0.90;;
22713;SDS011;11524;50.846;4.326;2023-03-16T16:36:13;1.75;;;0.75;;
22713;SDS011;11524;50.846;4.326;2023-03-16T16:38:43;1.42;;;0.82;;
22713;SDS011;11524;50.846;4.326;2023-03-16T16:41:09;1.58;;;1.00;;